sensor_id;sensor_type;location;lat;lon;timestamp;temperature;humidity
21035;DHT22;10676;50.848;3.272;2022-07-15T00:00:01;14.50;99.90
21035;DHT22;10676;50.848;3.272;2022-07-15T00:02:26;14.50;99.90
21035;DHT22;10676;50.848;3.272;2022-07-15T00:04:52;14.50;99.90
21035;DHT22;10676;50.848;3.272;2022-07-15T00:07:18;14.40;99.90
21035;DHT22;10676;50.848;3.272;2022-07-15T00:09:45;14.40;99.90
21035;DHT22;10676;50.848;3.272;2022-07-15T00:12:30;14.40;99.90
21035;DHT22;10676;50.848;3.272;2022-07-15T00:14:55;14.40;99.90
21035;DHT22;10676;50.848;3.272;2022-07-15T00:17:21;14.30;99.90
21035;DHT22;10676;50.848;3.272;2022-07-15T00:19:47;14.30;99.90
21035;DHT22;10676;50.848;3.272;2022-07-15T00:22:12;14.20;99.90
21035;DHT22;10676;50.848;3.272;2022-07-15T00:24:38;14.20;99.90
21035;DHT22;10676;50.848;3.272;2022-07-15T00:27:04;14.20;99.90
21035;DHT22;10676;50.848;3.272;2022-07-15T00:29:30;14.10;99.90
21035;DHT22;10676;50.848;3.272;2022-07-15T00:31:56;14.10;99.90
21035;DHT22;10676;50.848;3.272;2022-07-15T00:34:22;14.10;99.90
21035;DHT22;10676;50.848;3.272;2022-07-15T00:36:48;14.00;99.90
21035;DHT22;10676;50.848;3.272;2022-07-15T00:39:14;14.00;99.90
21035;DHT22;10676;50.848;3.272;2022-07-15T00:41:41;14.00;99.90
21035;DHT22;10676;50.848;3.272;2022-07-15T00:44:08;13.90;99.90
21035;DHT22;10676;50.848;3.272;2022-07-15T00:46:35;13.90;99.90
21035;DHT22;10676;50.848;3.272;2022-07-15T00:49:04;13.80;99.90
21035;DHT22;10676;50.848;3.272;2022-07-15T00:51:38;13.80;99.90
21035;DHT22;10676;50.848;3.272;2022-07-15T00:54:11;13.80;99.90
21035;DHT22;10676;50.848;3.272;2022-07-15T00:56:44;13.80;99.90
21035;DHT22;10676;50.848;3.272;2022-07-15T00:59:12;13.70;99.90
21035;DHT22;10676;50.848;3.272;2022-07-15T01:01:40;13.70;99.90
21035;DHT22;10676;50.848;3.272;2022-07-15T01:04:06;13.70;99.90
21035;DHT22;10676;50.848;3.272;2022-07-15T01:06:32;13.60;99.90
21035;DHT22;10676;50.848;3.272;2022-07-15T01:08:58;13.60;99.90
21035;DHT22;10676;50.848;3.272;2022-07-15T01:11:25;13.60;99.90
21035;DHT22;10676;50.848;3.272;2022-07-15T01:13:51;13.60;99.90
21035;DHT22;10676;50.848;3.272;2022-07-15T01:16:17;13.50;99.90
21035;DHT22;10676;50.848;3.272;2022-07-15T01:18:42;13.50;99.90
21035;DHT22;10676;50.848;3.272;2022-07-15T01:21:08;13.50;99.90
21035;DHT22;10676;50.848;3.272;2022-07-15T01:23:34;13.50;99.90
21035;DHT22;10676;50.848;3.272;2022-07-15T01:26:01;13.40;99.90
21035;DHT22;10676;50.848;3.272;2022-07-15T01:28:27;13.40;99.90
21035;DHT22;10676;50.848;3.272;2022-07-15T01:30:53;13.40;99.90
21035;DHT22;10676;50.848;3.272;2022-07-15T01:33:18;13.40;99.90
21035;DHT22;10676;50.848;3.272;2022-07-15T01:35:44;13.30;99.90
21035;DHT22;10676;50.848;3.272;2022-07-15T01:38:10;13.20;99.90
21035;DHT22;10676;50.848;3.272;2022-07-15T01:40:35;13.20;99.90
21035;DHT22;10676;50.848;3.272;2022-07-15T01:43:01;13.10;99.90
21035;DHT22;10676;50.848;3.272;2022-07-15T01:45:27;13.10;99.90
21035;DHT22;10676;50.848;3.272;2022-07-15T01:47:52;13.00;99.90
21035;DHT22;10676;50.848;3.272;2022-07-15T01:50:18;12.90;99.90
21035;DHT22;10676;50.848;3.272;2022-07-15T01:52:44;12.90;99.90
21035;DHT22;10676;50.848;3.272;2022-07-15T01:55:10;12.80;99.90
21035;DHT22;10676;50.848;3.272;2022-07-15T01:57:36;12.80;99.90
21035;DHT22;10676;50.848;3.272;2022-07-15T02:00:04;12.70;99.90
21035;DHT22;10676;50.848;3.272;2022-07-15T02:02:30;12.60;99.90
21035;DHT22;10676;50.848;3.272;2022-07-15T02:04:56;12.60;99.90
21035;DHT22;10676;50.848;3.272;2022-07-15T02:07:22;12.50;99.90
21035;DHT22;10676;50.848;3.272;2022-07-15T02:09:47;12.40;99.90
21035;DHT22;10676;50.848;3.272;2022-07-15T02:12:13;12.40;99.90
21035;DHT22;10676;50.848;3.272;2022-07-15T02:14:39;12.30;99.90
21035;DHT22;10676;50.848;3.272;2022-07-15T02:17:05;12.20;99.90
21035;DHT22;10676;50.848;3.272;2022-07-15T02:19:30;12.20;99.90
21035;DHT22;10676;50.848;3.272;2022-07-15T02:21:56;12.10;99.90
21035;DHT22;10676;50.848;3.272;2022-07-15T02:24:22;12.00;99.90
21035;DHT22;10676;50.848;3.272;2022-07-15T02:26:48;12.10;99.90
21035;DHT22;10676;50.848;3.272;2022-07-15T02:29:16;12.00;99.90
21035;DHT22;10676;50.848;3.272;2022-07-15T02:31:42;11.90;99.90
21035;DHT22;10676;50.848;3.272;2022-07-15T02:34:08;11.90;99.90
21035;DHT22;10676;50.848;3.272;2022-07-15T02:36:34;11.90;99.90
21035;DHT22;10676;50.848;3.272;2022-07-15T02:39:01;11.80;99.90
21035;DHT22;10676;50.848;3.272;2022-07-15T02:41:28;11.80;99.90
21035;DHT22;10676;50.848;3.272;2022-07-15T02:43:54;11.80;99.90
21035;DHT22;10676;50.848;3.272;2022-07-15T02:46:20;11.80;99.90
21035;DHT22;10676;50.848;3.272;2022-07-15T02:48:46;11.80;99.90
21035;DHT22;10676;50.848;3.272;2022-07-15T02:51:13;11.80;99.90
21035;DHT22;10676;50.848;3.272;2022-07-15T02:53:38;11.80;99.90
21035;DHT22;10676;50.848;3.272;2022-07-15T02:56:05;11.80;99.90
21035;DHT22;10676;50.848;3.272;2022-07-15T02:58:31;11.70;99.90
21035;DHT22;10676;50.848;3.272;2022-07-15T03:00:58;11.70;99.90
21035;DHT22;10676;50.848;3.272;2022-07-15T03:03:24;11.60;99.90
21035;DHT22;10676;50.848;3.272;2022-07-15T03:05:56;11.60;99.90
21035;DHT22;10676;50.848;3.272;2022-07-15T03:08:23;11.60;99.90
21035;DHT22;10676;50.848;3.272;2022-07-15T03:10:48;11.60;99.90
21035;DHT22;10676;50.848;3.272;2022-07-15T03:13:14;11.70;99.90
21035;DHT22;10676;50.848;3.272;2022-07-15T03:15:40;11.70;99.90
21035;DHT22;10676;50.848;3.272;2022-07-15T03:18:05;11.60;99.90
21035;DHT22;10676;50.848;3.272;2022-07-15T03:20:31;11.60;99.90
21035;DHT22;10676;50.848;3.272;2022-07-15T03:22:56;11.60;99.90
21035;DHT22;10676;50.848;3.272;2022-07-15T03:25:22;11.50;99.90
21035;DHT22;10676;50.848;3.272;2022-07-15T03:27:48;11.50;99.90
21035;DHT22;10676;50.848;3.272;2022-07-15T03:30:13;11.50;99.90
21035;DHT22;10676;50.848;3.272;2022-07-15T03:32:40;11.40;99.90
21035;DHT22;10676;50.848;3.272;2022-07-15T03:35:06;11.40;99.90
21035;DHT22;10676;50.848;3.272;2022-07-15T03:37:32;11.40;99.90
21035;DHT22;10676;50.848;3.272;2022-07-15T03:39:58;11.40;99.90
21035;DHT22;10676;50.848;3.272;2022-07-15T03:42:23;11.40;99.90
21035;DHT22;10676;50.848;3.272;2022-07-15T03:44:49;11.40;99.90
21035;DHT22;10676;50.848;3.272;2022-07-15T03:47:15;11.40;99.90
21035;DHT22;10676;50.848;3.272;2022-07-15T03:49:41;11.40;99.90
21035;DHT22;10676;50.848;3.272;2022-07-15T03:52:07;11.40;99.90
21035;DHT22;10676;50.848;3.272;2022-07-15T03:54:33;11.50;99.90
21035;DHT22;10676;50.848;3.272;2022-07-15T03:56:58;11.50;99.90
21035;DHT22;10676;50.848;3.272;2022-07-15T03:59:25;11.50;99.90
21035;DHT22;10676;50.848;3.272;2022-07-15T04:01:51;11.50;99.90
21035;DHT22;10676;50.848;3.272;2022-07-15T04:04:17;11.60;99.90
21035;DHT22;10676;50.848;3.272;2022-07-15T04:06:43;11.60;99.90
21035;DHT22;10676;50.848;3.272;2022-07-15T04:09:09;11.60;99.90
21035;DHT22;10676;50.848;3.272;2022-07-15T04:11:36;11.60;99.90
21035;DHT22;10676;50.848;3.272;2022-07-15T04:14:01;11.70;99.90
21035;DHT22;10676;50.848;3.272;2022-07-15T04:16:27;11.80;99.90
21035;DHT22;10676;50.848;3.272;2022-07-15T04:18:54;11.80;99.90
21035;DHT22;10676;50.848;3.272;2022-07-15T04:21:19;11.90;99.90
21035;DHT22;10676;50.848;3.272;2022-07-15T04:23:45;11.90;99.90
21035;DHT22;10676;50.848;3.272;2022-07-15T04:26:11;12.00;99.90
21035;DHT22;10676;50.848;3.272;2022-07-15T04:28:37;12.10;99.90
21035;DHT22;10676;50.848;3.272;2022-07-15T04:31:02;12.20;99.90
21035;DHT22;10676;50.848;3.272;2022-07-15T04:33:28;12.30;99.90
21035;DHT22;10676;50.848;3.272;2022-07-15T04:35:54;12.40;99.90
21035;DHT22;10676;50.848;3.272;2022-07-15T04:38:20;12.50;99.90
21035;DHT22;10676;50.848;3.272;2022-07-15T04:40:46;12.60;99.90
21035;DHT22;10676;50.848;3.272;2022-07-15T04:43:12;12.70;99.90
21035;DHT22;10676;50.848;3.272;2022-07-15T04:45:38;12.70;99.90
21035;DHT22;10676;50.848;3.272;2022-07-15T04:48:04;12.80;99.90
21035;DHT22;10676;50.848;3.272;2022-07-15T04:50:49;12.90;99.90
21035;DHT22;10676;50.848;3.272;2022-07-15T04:53:18;13.10;99.90
21035;DHT22;10676;50.848;3.272;2022-07-15T04:55:45;13.30;99.90
21035;DHT22;10676;50.848;3.272;2022-07-15T04:58:11;13.60;99.90
21035;DHT22;10676;50.848;3.272;2022-07-15T05:00:43;14.00;99.90
21035;DHT22;10676;50.848;3.272;2022-07-15T05:03:08;14.40;99.90
21035;DHT22;10676;50.848;3.272;2022-07-15T05:05:34;15.00;99.90
21035;DHT22;10676;50.848;3.272;2022-07-15T05:08:00;15.70;99.90
21035;DHT22;10676;50.848;3.272;2022-07-15T05:10:26;16.40;99.90
21035;DHT22;10676;50.848;3.272;2022-07-15T05:12:51;17.20;99.90
21035;DHT22;10676;50.848;3.272;2022-07-15T05:15:17;18.00;99.90
21035;DHT22;10676;50.848;3.272;2022-07-15T05:17:43;18.70;99.90
21035;DHT22;10676;50.848;3.272;2022-07-15T05:20:08;19.30;99.90
21035;DHT22;10676;50.848;3.272;2022-07-15T05:22:34;19.70;99.90
21035;DHT22;10676;50.848;3.272;2022-07-15T05:25:00;19.90;99.90
21035;DHT22;10676;50.848;3.272;2022-07-15T05:27:25;19.90;99.90
21035;DHT22;10676;50.848;3.272;2022-07-15T05:29:51;20.00;99.90
21035;DHT22;10676;50.848;3.272;2022-07-15T05:32:17;20.10;99.90
21035;DHT22;10676;50.848;3.272;2022-07-15T05:34:42;20.40;99.90
21035;DHT22;10676;50.848;3.272;2022-07-15T05:37:08;21.00;99.90
21035;DHT22;10676;50.848;3.272;2022-07-15T05:39:34;21.70;99.90
21035;DHT22;10676;50.848;3.272;2022-07-15T05:42:00;22.60;99.90
21035;DHT22;10676;50.848;3.272;2022-07-15T05:44:26;23.40;99.90
21035;DHT22;10676;50.848;3.272;2022-07-15T05:46:52;24.40;99.90
21035;DHT22;10676;50.848;3.272;2022-07-15T05:49:18;25.40;99.90
21035;DHT22;10676;50.848;3.272;2022-07-15T05:51:44;26.30;99.90
21035;DHT22;10676;50.848;3.272;2022-07-15T05:54:10;27.10;99.90
21035;DHT22;10676;50.848;3.272;2022-07-15T05:56:38;27.70;99.90
21035;DHT22;10676;50.848;3.272;2022-07-15T05:59:04;28.20;99.90
21035;DHT22;10676;50.848;3.272;2022-07-15T06:01:30;28.80;99.90
21035;DHT22;10676;50.848;3.272;2022-07-15T06:03:55;29.40;99.00
21035;DHT22;10676;50.848;3.272;2022-07-15T06:06:21;30.00;96.50
21035;DHT22;10676;50.848;3.272;2022-07-15T06:08:47;30.50;95.00
21035;DHT22;10676;50.848;3.272;2022-07-15T06:11:12;31.00;92.50
21035;DHT22;10676;50.848;3.272;2022-07-15T06:13:39;31.40;91.10
21035;DHT22;10676;50.848;3.272;2022-07-15T06:16:06;31.60;86.80
21035;DHT22;10676;50.848;3.272;2022-07-15T06:18:32;31.80;83.20
21035;DHT22;10676;50.848;3.272;2022-07-15T06:20:58;32.00;79.40
21035;DHT22;10676;50.848;3.272;2022-07-15T06:23:23;32.20;76.30
21035;DHT22;10676;50.848;3.272;2022-07-15T06:25:49;32.40;73.20
21035;DHT22;10676;50.848;3.272;2022-07-15T06:28:15;32.60;70.90
21035;DHT22;10676;50.848;3.272;2022-07-15T06:30:40;32.70;70.50
21035;DHT22;10676;50.848;3.272;2022-07-15T06:33:06;33.00;67.40
21035;DHT22;10676;50.848;3.272;2022-07-15T06:35:32;33.10;66.00
21035;DHT22;10676;50.848;3.272;2022-07-15T06:37:58;33.30;63.60
21035;DHT22;10676;50.848;3.272;2022-07-15T06:40:23;33.40;61.70
21035;DHT22;10676;50.848;3.272;2022-07-15T06:42:49;33.40;61.00
21035;DHT22;10676;50.848;3.272;2022-07-15T06:45:14;33.40;60.10
21035;DHT22;10676;50.848;3.272;2022-07-15T06:47:43;33.50;58.70
21035;DHT22;10676;50.848;3.272;2022-07-15T06:50:10;33.60;58.90
21035;DHT22;10676;50.848;3.272;2022-07-15T06:52:36;33.70;58.10
21035;DHT22;10676;50.848;3.272;2022-07-15T06:55:02;33.70;57.50
21035;DHT22;10676;50.848;3.272;2022-07-15T06:57:28;33.90;56.30
21035;DHT22;10676;50.848;3.272;2022-07-15T06:59:54;34.00;55.70
21035;DHT22;10676;50.848;3.272;2022-07-15T07:02:19;34.10;55.40
21035;DHT22;10676;50.848;3.272;2022-07-15T07:04:45;34.20;54.60
21035;DHT22;10676;50.848;3.272;2022-07-15T07:07:11;34.30;54.00
21035;DHT22;10676;50.848;3.272;2022-07-15T07:09:36;34.20;53.70
21035;DHT22;10676;50.848;3.272;2022-07-15T07:12:03;34.10;53.70
21035;DHT22;10676;50.848;3.272;2022-07-15T07:14:28;34.20;53.20
21035;DHT22;10676;50.848;3.272;2022-07-15T07:16:54;34.40;52.80
21035;DHT22;10676;50.848;3.272;2022-07-15T07:19:19;34.60;51.90
21035;DHT22;10676;50.848;3.272;2022-07-15T07:21:45;34.60;51.90
21035;DHT22;10676;50.848;3.272;2022-07-15T07:24:11;34.50;51.50
21035;DHT22;10676;50.848;3.272;2022-07-15T07:26:36;34.70;50.80
21035;DHT22;10676;50.848;3.272;2022-07-15T07:29:03;35.00;49.80
21035;DHT22;10676;50.848;3.272;2022-07-15T07:31:29;35.30;48.50
21035;DHT22;10676;50.848;3.272;2022-07-15T07:33:55;35.50;48.30
21035;DHT22;10676;50.848;3.272;2022-07-15T07:36:22;35.80;47.80
21035;DHT22;10676;50.848;3.272;2022-07-15T07:38:47;36.10;47.10
21035;DHT22;10676;50.848;3.272;2022-07-15T07:41:13;36.50;46.30
21035;DHT22;10676;50.848;3.272;2022-07-15T07:43:39;36.90;43.90
21035;DHT22;10676;50.848;3.272;2022-07-15T07:46:05;37.10;43.80
21035;DHT22;10676;50.848;3.272;2022-07-15T07:48:30;36.90;43.80
21035;DHT22;10676;50.848;3.272;2022-07-15T07:50:57;36.90;43.90
21035;DHT22;10676;50.848;3.272;2022-07-15T07:53:23;36.90;43.60
21035;DHT22;10676;50.848;3.272;2022-07-15T07:55:49;37.10;42.40
21035;DHT22;10676;50.848;3.272;2022-07-15T07:58:15;37.40;42.30
21035;DHT22;10676;50.848;3.272;2022-07-15T08:00:43;37.70;42.00
21035;DHT22;10676;50.848;3.272;2022-07-15T08:03:08;38.00;41.40
21035;DHT22;10676;50.848;3.272;2022-07-15T08:05:34;38.40;39.30
21035;DHT22;10676;50.848;3.272;2022-07-15T08:08:26;38.70;38.10
21035;DHT22;10676;50.848;3.272;2022-07-15T08:10:54;38.70;38.40
21035;DHT22;10676;50.848;3.272;2022-07-15T08:13:22;38.50;38.00
21035;DHT22;10676;50.848;3.272;2022-07-15T08:15:48;38.40;38.00
21035;DHT22;10676;50.848;3.272;2022-07-15T08:18:14;38.40;37.60
21035;DHT22;10676;50.848;3.272;2022-07-15T08:20:40;38.20;38.20
21035;DHT22;10676;50.848;3.272;2022-07-15T08:23:06;38.10;38.00
21035;DHT22;10676;50.848;3.272;2022-07-15T08:25:35;38.20;38.10
21035;DHT22;10676;50.848;3.272;2022-07-15T08:28:02;38.50;38.00
21035;DHT22;10676;50.848;3.272;2022-07-15T08:30:30;38.60;37.80
21035;DHT22;10676;50.848;3.272;2022-07-15T08:32:56;38.90;37.60
21035;DHT22;10676;50.848;3.272;2022-07-15T08:35:23;39.20;37.00
21035;DHT22;10676;50.848;3.272;2022-07-15T08:37:49;39.40;36.80
21035;DHT22;10676;50.848;3.272;2022-07-15T08:40:16;39.80;36.10
21035;DHT22;10676;50.848;3.272;2022-07-15T08:42:42;40.10;35.80
21035;DHT22;10676;50.848;3.272;2022-07-15T08:45:12;40.20;35.50
21035;DHT22;10676;50.848;3.272;2022-07-15T08:47:40;40.40;35.20
21035;DHT22;10676;50.848;3.272;2022-07-15T08:50:08;40.40;35.30
21035;DHT22;10676;50.848;3.272;2022-07-15T08:52:36;40.60;34.60
21035;DHT22;10676;50.848;3.272;2022-07-15T08:55:02;40.80;33.90
21035;DHT22;10676;50.848;3.272;2022-07-15T08:57:29;41.10;33.00
21035;DHT22;10676;50.848;3.272;2022-07-15T08:59:54;41.10;31.90
21035;DHT22;10676;50.848;3.272;2022-07-15T09:02:21;40.40;33.30
21035;DHT22;10676;50.848;3.272;2022-07-15T09:08:05;38.10;35.80
21035;DHT22;10676;50.848;3.272;2022-07-15T09:10:48;37.70;36.50
21035;DHT22;10676;50.848;3.272;2022-07-15T09:13:36;37.70;36.40
21035;DHT22;10676;50.848;3.272;2022-07-15T09:16:14;38.10;36.50
21035;DHT22;10676;50.848;3.272;2022-07-15T09:18:48;38.50;35.60
21035;DHT22;10676;50.848;3.272;2022-07-15T09:21:19;38.70;34.90
21035;DHT22;10676;50.848;3.272;2022-07-15T09:23:46;39.20;34.80
21035;DHT22;10676;50.848;3.272;2022-07-15T09:26:28;39.80;33.70
21035;DHT22;10676;50.848;3.272;2022-07-15T09:28:55;40.40;33.80
21035;DHT22;10676;50.848;3.272;2022-07-15T09:31:37;40.90;32.90
21035;DHT22;10676;50.848;3.272;2022-07-15T09:34:23;41.50;32.10
21035;DHT22;10676;50.848;3.272;2022-07-15T09:36:51;41.60;31.30
21035;DHT22;10676;50.848;3.272;2022-07-15T09:39:20;41.80;31.40
21035;DHT22;10676;50.848;3.272;2022-07-15T09:41:46;42.00;30.90
21035;DHT22;10676;50.848;3.272;2022-07-15T09:44:23;42.00;31.00
21035;DHT22;10676;50.848;3.272;2022-07-15T09:47:00;42.00;31.60
21035;DHT22;10676;50.848;3.272;2022-07-15T09:51:56;41.00;32.10
21035;DHT22;10676;50.848;3.272;2022-07-15T09:54:24;40.10;32.90
21035;DHT22;10676;50.848;3.272;2022-07-15T09:56:50;38.80;34.60
21035;DHT22;10676;50.848;3.272;2022-07-15T09:59:16;37.90;35.50
21035;DHT22;10676;50.848;3.272;2022-07-15T10:01:43;37.60;36.30
21035;DHT22;10676;50.848;3.272;2022-07-15T10:04:10;37.90;36.50
21035;DHT22;10676;50.848;3.272;2022-07-15T10:06:37;38.40;34.70
21035;DHT22;10676;50.848;3.272;2022-07-15T10:09:05;38.80;34.50
21035;DHT22;10676;50.848;3.272;2022-07-15T10:11:34;39.00;34.10
21035;DHT22;10676;50.848;3.272;2022-07-15T10:14:32;39.00;33.50
21035;DHT22;10676;50.848;3.272;2022-07-15T10:22:53;39.30;34.00
21035;DHT22;10676;50.848;3.272;2022-07-15T10:30:32;40.70;32.10
21035;DHT22;10676;50.848;3.272;2022-07-15T10:33:30;41.40;31.00
21035;DHT22;10676;50.848;3.272;2022-07-15T10:36:04;42.10;31.40
21035;DHT22;10676;50.848;3.272;2022-07-15T10:38:40;41.50;31.60
21035;DHT22;10676;50.848;3.272;2022-07-15T10:41:15;40.70;31.50
21035;DHT22;10676;50.848;3.272;2022-07-15T10:46:23;40.50;31.00
21035;DHT22;10676;50.848;3.272;2022-07-15T10:49:32;40.50;31.80
21035;DHT22;10676;50.848;3.272;2022-07-15T10:56:44;40.50;31.10
21035;DHT22;10676;50.848;3.272;2022-07-15T10:59:24;39.70;31.90
21035;DHT22;10676;50.848;3.272;2022-07-15T11:02:11;38.80;32.90
21035;DHT22;10676;50.848;3.272;2022-07-15T11:04:38;37.80;34.10
21035;DHT22;10676;50.848;3.272;2022-07-15T11:12:11;35.40;36.70
21035;DHT22;10676;50.848;3.272;2022-07-15T11:17:38;34.20;39.10
21035;DHT22;10676;50.848;3.272;2022-07-15T11:20:08;34.00;38.70
21035;DHT22;10676;50.848;3.272;2022-07-15T11:22:45;33.80;39.20
21035;DHT22;10676;50.848;3.272;2022-07-15T11:25:29;33.60;39.40
21035;DHT22;10676;50.848;3.272;2022-07-15T11:30:21;32.80;41.20
21035;DHT22;10676;50.848;3.272;2022-07-15T11:32:55;32.40;41.40
21035;DHT22;10676;50.848;3.272;2022-07-15T11:35:22;32.10;41.70
21035;DHT22;10676;50.848;3.272;2022-07-15T11:37:47;31.80;42.40
21035;DHT22;10676;50.848;3.272;2022-07-15T11:40:17;31.30;43.10
21035;DHT22;10676;50.848;3.272;2022-07-15T11:43:02;31.00;44.10
21035;DHT22;10676;50.848;3.272;2022-07-15T11:45:47;30.60;45.00
21035;DHT22;10676;50.848;3.272;2022-07-15T11:48:14;30.30;46.10
21035;DHT22;10676;50.848;3.272;2022-07-15T11:50:57;30.10;46.10
21035;DHT22;10676;50.848;3.272;2022-07-15T11:53:24;30.20;45.80
21035;DHT22;10676;50.848;3.272;2022-07-15T11:55:59;30.30;45.30
21035;DHT22;10676;50.848;3.272;2022-07-15T11:58:41;30.30;45.20
21035;DHT22;10676;50.848;3.272;2022-07-15T12:01:19;30.30;45.60
21035;DHT22;10676;50.848;3.272;2022-07-15T12:03:47;30.30;45.10
21035;DHT22;10676;50.848;3.272;2022-07-15T12:06:24;30.10;45.20
21035;DHT22;10676;50.848;3.272;2022-07-15T12:08:55;29.70;45.50
21035;DHT22;10676;50.848;3.272;2022-07-15T12:16:47;29.20;48.30
21035;DHT22;10676;50.848;3.272;2022-07-15T12:19:18;29.70;47.00
21035;DHT22;10676;50.848;3.272;2022-07-15T12:21:47;30.30;46.30
21035;DHT22;10676;50.848;3.272;2022-07-15T12:24:14;31.00;44.50
21035;DHT22;10676;50.848;3.272;2022-07-15T12:29:22;32.80;42.10
21035;DHT22;10676;50.848;3.272;2022-07-15T12:32:05;33.60;40.80
21035;DHT22;10676;50.848;3.272;2022-07-15T12:34:48;34.30;40.70
21035;DHT22;10676;50.848;3.272;2022-07-15T12:37:25;34.60;40.10
21035;DHT22;10676;50.848;3.272;2022-07-15T12:39:56;35.00;39.10
21035;DHT22;10676;50.848;3.272;2022-07-15T12:42:22;35.50;39.20
21035;DHT22;10676;50.848;3.272;2022-07-15T12:45:16;35.60;38.90
21035;DHT22;10676;50.848;3.272;2022-07-15T12:50:34;36.00;37.60
21035;DHT22;10676;50.848;3.272;2022-07-15T12:53:01;35.80;38.00
21035;DHT22;10676;50.848;3.272;2022-07-15T12:55:29;35.30;39.00
21035;DHT22;10676;50.848;3.272;2022-07-15T12:58:10;34.50;40.10
21035;DHT22;10676;50.848;3.272;2022-07-15T13:00:37;33.70;41.00
21035;DHT22;10676;50.848;3.272;2022-07-15T13:05:35;32.60;43.10
21035;DHT22;10676;50.848;3.272;2022-07-15T13:08:07;32.50;42.30
21035;DHT22;10676;50.848;3.272;2022-07-15T13:10:34;32.40;42.20
21035;DHT22;10676;50.848;3.272;2022-07-15T13:13:00;32.40;43.20
21035;DHT22;10676;50.848;3.272;2022-07-15T13:15:26;32.60;42.60
21035;DHT22;10676;50.848;3.272;2022-07-15T13:17:52;32.60;42.40
21035;DHT22;10676;50.848;3.272;2022-07-15T13:20:18;32.60;42.70
21035;DHT22;10676;50.848;3.272;2022-07-15T13:22:44;32.50;43.30
21035;DHT22;10676;50.848;3.272;2022-07-15T13:25:11;32.20;43.60
21035;DHT22;10676;50.848;3.272;2022-07-15T13:27:37;31.90;44.30
21035;DHT22;10676;50.848;3.272;2022-07-15T13:30:04;31.70;43.50
21035;DHT22;10676;50.848;3.272;2022-07-15T13:32:30;31.50;44.30
21035;DHT22;10676;50.848;3.272;2022-07-15T13:34:56;31.80;44.30
21035;DHT22;10676;50.848;3.272;2022-07-15T13:37:22;32.40;44.10
21035;DHT22;10676;50.848;3.272;2022-07-15T13:39:47;33.20;42.60
21035;DHT22;10676;50.848;3.272;2022-07-15T13:42:13;33.60;41.90
21035;DHT22;10676;50.848;3.272;2022-07-15T13:44:38;33.80;42.10
21035;DHT22;10676;50.848;3.272;2022-07-15T13:47:04;34.10;42.20
21035;DHT22;10676;50.848;3.272;2022-07-15T13:49:30;34.70;41.20
21035;DHT22;10676;50.848;3.272;2022-07-15T13:52:14;35.40;40.10
21035;DHT22;10676;50.848;3.272;2022-07-15T13:54:39;35.80;39.50
21035;DHT22;10676;50.848;3.272;2022-07-15T13:57:05;35.90;39.10
21035;DHT22;10676;50.848;3.272;2022-07-15T13:59:31;36.10;39.10
21035;DHT22;10676;50.848;3.272;2022-07-15T14:01:56;36.30;38.20
21035;DHT22;10676;50.848;3.272;2022-07-15T14:04:22;36.50;38.30
21035;DHT22;10676;50.848;3.272;2022-07-15T14:06:48;36.50;38.90
21035;DHT22;10676;50.848;3.272;2022-07-15T14:09:13;36.50;38.20
21035;DHT22;10676;50.848;3.272;2022-07-15T14:11:39;36.60;37.50
21035;DHT22;10676;50.848;3.272;2022-07-15T14:14:04;36.50;38.50
21035;DHT22;10676;50.848;3.272;2022-07-15T14:16:30;36.50;39.10
21035;DHT22;10676;50.848;3.272;2022-07-15T14:18:56;36.70;38.50
21035;DHT22;10676;50.848;3.272;2022-07-15T14:21:21;36.80;38.10
21035;DHT22;10676;50.848;3.272;2022-07-15T14:23:48;36.70;38.20
21035;DHT22;10676;50.848;3.272;2022-07-15T14:26:15;36.30;38.30
21035;DHT22;10676;50.848;3.272;2022-07-15T14:28:41;35.70;39.30
21035;DHT22;10676;50.848;3.272;2022-07-15T14:31:09;35.40;40.10
21035;DHT22;10676;50.848;3.272;2022-07-15T14:33:38;35.30;40.30
21035;DHT22;10676;50.848;3.272;2022-07-15T14:36:03;35.20;40.60
21035;DHT22;10676;50.848;3.272;2022-07-15T14:38:29;35.10;41.20
21035;DHT22;10676;50.848;3.272;2022-07-15T14:40:55;34.90;41.00
21035;DHT22;10676;50.848;3.272;2022-07-15T14:43:21;34.50;42.00
21035;DHT22;10676;50.848;3.272;2022-07-15T14:45:46;34.30;42.10
21035;DHT22;10676;50.848;3.272;2022-07-15T14:48:12;34.20;42.60
21035;DHT22;10676;50.848;3.272;2022-07-15T14:50:37;34.10;43.40
21035;DHT22;10676;50.848;3.272;2022-07-15T14:53:03;34.20;42.40
21035;DHT22;10676;50.848;3.272;2022-07-15T14:55:29;34.20;42.30
21035;DHT22;10676;50.848;3.272;2022-07-15T14:57:55;34.10;42.70
21035;DHT22;10676;50.848;3.272;2022-07-15T15:00:21;34.00;43.20
21035;DHT22;10676;50.848;3.272;2022-07-15T15:02:46;33.90;42.80
21035;DHT22;10676;50.848;3.272;2022-07-15T15:05:12;34.00;42.90
21035;DHT22;10676;50.848;3.272;2022-07-15T15:07:38;33.90;42.00
21035;DHT22;10676;50.848;3.272;2022-07-15T15:10:04;33.90;43.30
21035;DHT22;10676;50.848;3.272;2022-07-15T15:12:29;33.80;42.60
21035;DHT22;10676;50.848;3.272;2022-07-15T15:14:55;33.90;42.60
21035;DHT22;10676;50.848;3.272;2022-07-15T15:17:21;34.10;42.80
21035;DHT22;10676;50.848;3.272;2022-07-15T15:19:46;34.30;42.60
21035;DHT22;10676;50.848;3.272;2022-07-15T15:22:12;34.40;42.10
21035;DHT22;10676;50.848;3.272;2022-07-15T15:24:38;34.30;42.00
21035;DHT22;10676;50.848;3.272;2022-07-15T15:27:04;34.30;41.70
21035;DHT22;10676;50.848;3.272;2022-07-15T15:29:32;34.10;42.40
21035;DHT22;10676;50.848;3.272;2022-07-15T15:31:58;33.70;43.00
21035;DHT22;10676;50.848;3.272;2022-07-15T15:34:24;33.40;43.10
21035;DHT22;10676;50.848;3.272;2022-07-15T15:36:50;32.90;43.70
21035;DHT22;10676;50.848;3.272;2022-07-15T15:39:16;32.30;45.00
21035;DHT22;10676;50.848;3.272;2022-07-15T15:41:42;31.60;45.90
21035;DHT22;10676;50.848;3.272;2022-07-15T15:44:08;31.00;46.70
21035;DHT22;10676;50.848;3.272;2022-07-15T15:46:33;30.50;48.50
21035;DHT22;10676;50.848;3.272;2022-07-15T15:48:59;30.20;48.50
21035;DHT22;10676;50.848;3.272;2022-07-15T15:51:25;30.00;48.60
21035;DHT22;10676;50.848;3.272;2022-07-15T15:53:51;30.10;48.80
21035;DHT22;10676;50.848;3.272;2022-07-15T15:56:17;30.30;48.40
21035;DHT22;10676;50.848;3.272;2022-07-15T15:58:42;30.40;47.90
21035;DHT22;10676;50.848;3.272;2022-07-15T16:01:08;30.60;47.60
21035;DHT22;10676;50.848;3.272;2022-07-15T16:03:34;30.70;47.60
21035;DHT22;10676;50.848;3.272;2022-07-15T16:06:00;30.90;47.50
21035;DHT22;10676;50.848;3.272;2022-07-15T16:08:26;31.20;46.70
21035;DHT22;10676;50.848;3.272;2022-07-15T16:10:51;31.20;46.70
21035;DHT22;10676;50.848;3.272;2022-07-15T16:13:17;31.20;46.90
21035;DHT22;10676;50.848;3.272;2022-07-15T16:15:43;31.30;46.80
21035;DHT22;10676;50.848;3.272;2022-07-15T16:18:09;31.30;46.40
21035;DHT22;10676;50.848;3.272;2022-07-15T16:20:35;31.40;46.50